createdAt,value
2018-08-03T00:00:07.498Z,23.29
2018-08-03T00:02:35.348Z,23.24
2018-08-03T00:05:03.243Z,23.34
2018-08-03T00:07:31.098Z,23.32
2018-08-03T00:09:58.930Z,23.24
2018-08-03T00:12:26.822Z,23.24
2018-08-03T00:14:54.652Z,23.22
2018-08-03T00:17:22.509Z,23.21
2018-08-03T00:19:50.329Z,23.27
2018-08-03T00:22:18.201Z,23.28
2018-08-03T00:24:46.122Z,23.19
2018-08-03T00:27:13.954Z,23.18
2018-08-03T00:29:41.931Z,23.07
2018-08-03T00:32:09.794Z,23.10
2018-08-03T00:34:37.682Z,23.04
2018-08-03T00:37:05.655Z,22.90
2018-08-03T00:39:33.513Z,22.87
2018-08-03T00:42:01.367Z,22.88
2018-08-03T00:44:29.234Z,22.88
2018-08-03T00:46:57.092Z,23.11
2018-08-03T00:49:24.954Z,23.20
2018-08-03T00:51:52.828Z,23.20
2018-08-03T00:54:20.654Z,23.21
2018-08-03T00:56:48.535Z,23.15
2018-08-03T00:59:16.470Z,23.15
2018-08-03T01:01:44.289Z,22.95
2018-08-03T01:04:12.139Z,23.14
2018-08-03T01:06:40.025Z,23.09
2018-08-03T01:09:09.859Z,22.65
2018-08-03T01:11:37.759Z,22.82
2018-08-03T01:14:06.082Z,22.97
2018-08-03T01:16:38.388Z,23.05
2018-08-03T01:19:06.254Z,23.29
2018-08-03T01:21:34.182Z,23.21
2018-08-03T01:24:02.256Z,23.19
2018-08-03T01:26:30.177Z,23.17
2018-08-03T01:28:58.070Z,23.22
2018-08-03T01:31:25.916Z,23.22
2018-08-03T01:33:53.843Z,23.18
2018-08-03T01:36:21.689Z,23.25
2018-08-03T01:38:49.509Z,23.18
2018-08-03T01:41:17.367Z,23.05
2018-08-03T01:43:45.217Z,22.73
2018-08-03T01:46:13.039Z,22.52
2018-08-03T01:48:40.909Z,22.35
2018-08-03T01:51:08.768Z,21.95
2018-08-03T01:53:36.635Z,21.77
2018-08-03T01:56:04.610Z,21.76
2018-08-03T01:58:32.490Z,22.18
2018-08-03T02:01:00.453Z,22.46
2018-08-03T02:03:28.326Z,22.60
2018-08-03T02:05:56.418Z,22.65
2018-08-03T02:08:24.313Z,22.60
2018-08-03T02:10:52.274Z,22.10
2018-08-03T02:13:20.142Z,22.50
2018-08-03T02:15:48.002Z,22.17
2018-08-03T02:18:15.869Z,22.15
2018-08-03T02:20:43.700Z,22.14
2018-08-03T02:23:11.578Z,22.10
2018-08-03T02:25:39.426Z,21.97
2018-08-03T02:28:07.327Z,22.00
2018-08-03T02:30:35.200Z,22.02
2018-08-03T02:33:03.075Z,22.05
2018-08-03T02:35:31.036Z,22.18
2018-08-03T02:37:58.874Z,22.11
2018-08-03T02:40:26.778Z,22.09
2018-08-03T02:42:54.625Z,22.14
2018-08-03T02:45:22.489Z,22.04
2018-08-03T02:47:50.337Z,22.13
2018-08-03T02:50:18.191Z,22.16
2018-08-03T02:52:46.054Z,22.14
2018-08-03T02:55:13.954Z,22.23
2018-08-03T02:57:41.838Z,22.15
2018-08-03T03:00:09.684Z,22.22
2018-08-03T03:02:37.537Z,22.22
2018-08-03T03:05:05.494Z,22.13
2018-08-03T03:07:33.375Z,22.14
2018-08-03T03:10:01.199Z,22.07
2018-08-03T03:12:29.299Z,22.12
2018-08-03T03:14:57.155Z,22.08
2018-08-03T03:17:25.039Z,22.00
2018-08-03T03:19:52.918Z,22.15
2018-08-03T03:22:20.775Z,22.36
2018-08-03T03:24:48.602Z,22.59
2018-08-03T03:27:16.445Z,22.64
2018-08-03T03:29:44.289Z,23.16
2018-08-03T03:32:12.203Z,23.38
2018-08-03T03:34:40.051Z,23.44
2018-08-03T03:37:07.903Z,23.13
2018-08-03T03:39:35.761Z,23.49
2018-08-03T03:42:03.635Z,24.72
2018-08-03T03:44:31.453Z,25.83
2018-08-03T03:46:59.349Z,26.36
2018-08-03T03:49:27.190Z,27.12
2018-08-03T03:51:55.056Z,28.12
2018-08-03T03:54:22.908Z,29.09
2018-08-03T03:56:50.787Z,30.13
2018-08-03T03:59:18.704Z,30.87
2018-08-03T04:01:46.494Z,31.35
2018-08-03T04:04:14.370Z,32.24
2018-08-03T04:06:42.254Z,32.87
2018-08-03T04:09:11.758Z,33.34
2018-08-03T04:11:39.822Z,33.88
2018-08-03T04:14:07.895Z,34.03
2018-08-03T04:16:36.271Z,33.65
2018-08-03T04:19:04.098Z,34.56
2018-08-03T04:21:31.949Z,35.46
2018-08-03T04:23:59.815Z,35.60
2018-08-03T04:26:27.687Z,35.33
2018-08-03T04:28:55.556Z,34.44
2018-08-03T04:31:23.377Z,35.72
2018-08-03T04:33:51.203Z,37.24
2018-08-03T04:36:19.066Z,38.25
2018-08-03T04:38:46.906Z,39.60
2018-08-03T04:41:14.779Z,40.14
2018-08-03T04:43:42.597Z,37.33
2018-08-03T04:46:10.450Z,35.15
2018-08-03T04:48:38.323Z,35.47
2018-08-03T04:51:06.192Z,36.95
2018-08-03T04:53:34.010Z,37.95
2018-08-03T04:56:01.889Z,37.27
2018-08-03T04:58:29.801Z,36.36
2018-08-03T05:00:57.645Z,36.72
2018-08-03T05:03:25.505Z,35.69
2018-08-03T05:05:53.441Z,35.18
2018-08-03T05:08:21.674Z,35.07
2018-08-03T05:10:49.508Z,34.96
2018-08-03T05:13:17.318Z,34.58
2018-08-03T05:15:45.157Z,33.15
2018-08-03T05:18:12.967Z,34.26
2018-08-03T05:20:40.792Z,34.12
2018-08-03T05:23:08.622Z,33.83
2018-08-03T05:25:36.549Z,35.04
2018-08-03T05:28:04.459Z,33.97
2018-08-03T05:30:32.336Z,33.99
2018-08-03T05:33:00.311Z,34.56
2018-08-03T05:35:28.189Z,34.24
2018-08-03T05:37:56.062Z,32.44
2018-08-03T05:40:23.884Z,34.02
2018-08-03T05:42:51.738Z,33.33
2018-08-03T05:45:19.660Z,33.55
2018-08-03T05:47:47.520Z,34.01
2018-08-03T05:50:15.459Z,33.57
2018-08-03T05:52:43.287Z,34.61
2018-08-03T05:55:12.013Z,33.48
2018-08-03T05:57:39.869Z,30.08
2018-08-03T06:00:07.792Z,30.58
2018-08-03T06:02:36.268Z,31.10
2018-08-03T06:05:05.218Z,33.48
2018-08-03T06:07:33.839Z,35.28
2018-08-03T06:10:01.693Z,35.39
2018-08-03T06:12:29.549Z,33.46
2018-08-03T06:14:57.457Z,33.60
2018-08-03T06:17:25.302Z,34.78
2018-08-03T06:19:53.133Z,34.86
2018-08-03T06:22:21.013Z,34.14
2018-08-03T06:24:48.913Z,34.32
2018-08-03T06:27:16.769Z,33.83
2018-08-03T06:29:44.683Z,33.74
2018-08-03T06:32:12.538Z,33.90
2018-08-03T06:34:40.437Z,32.73
2018-08-03T06:37:08.536Z,31.88
2018-08-03T06:39:36.413Z,31.10
2018-08-03T06:42:04.303Z,32.76
2018-08-03T06:44:32.175Z,33.73
2018-08-03T06:47:00.019Z,33.20
2018-08-03T06:49:27.854Z,30.62
2018-08-03T06:51:55.739Z,31.47
2018-08-03T06:54:23.558Z,32.85
2018-08-03T06:56:51.368Z,30.21
2018-08-03T06:59:19.284Z,32.25
2018-08-03T07:01:47.185Z,31.60
2018-08-03T07:04:15.075Z,30.46
2018-08-03T07:06:42.899Z,31.40
2018-08-03T07:09:11.939Z,32.52
2018-08-03T07:11:39.834Z,33.12
2018-08-03T07:14:07.792Z,33.44
2018-08-03T07:16:35.749Z,33.11
2018-08-03T07:19:03.728Z,32.39
2018-08-03T07:21:31.566Z,32.22
2018-08-03T07:23:59.429Z,32.61
2018-08-03T07:26:27.269Z,34.06
2018-08-03T07:28:55.106Z,33.19
2018-08-03T07:31:23.034Z,33.34
2018-08-03T07:33:50.860Z,33.41
2018-08-03T07:36:18.814Z,34.31
2018-08-03T07:38:46.936Z,33.02
2018-08-03T07:41:14.766Z,33.04
2018-08-03T07:43:42.611Z,32.99
2018-08-03T07:46:10.525Z,33.23
2018-08-03T07:48:38.389Z,34.73
2018-08-03T07:51:06.229Z,34.19
2018-08-03T07:53:34.092Z,34.72
2018-08-03T07:56:01.941Z,32.89
2018-08-03T07:58:29.764Z,32.03
2018-08-03T08:00:57.873Z,32.50
2018-08-03T08:03:25.710Z,33.13
2018-08-03T08:05:53.590Z,32.71
2018-08-03T08:08:21.426Z,31.45
2018-08-03T08:10:49.370Z,32.55
2018-08-03T08:13:17.241Z,33.08
2018-08-03T08:15:45.137Z,31.34
2018-08-03T08:18:12.965Z,32.36
2018-08-03T08:20:40.791Z,33.55
2018-08-03T08:23:08.613Z,31.79
2018-08-03T08:25:36.484Z,32.26
2018-08-03T08:28:04.338Z,32.62
2018-08-03T08:30:32.273Z,32.75
2018-08-03T08:33:00.155Z,32.44
2018-08-03T08:35:27.982Z,32.30
2018-08-03T08:37:55.872Z,31.42
2018-08-03T08:40:23.781Z,31.30
2018-08-03T08:42:51.605Z,31.11
2018-08-03T08:45:19.490Z,32.00
2018-08-03T08:47:47.336Z,32.13
2018-08-03T08:50:15.264Z,31.88
2018-08-03T08:52:43.163Z,31.48
2018-08-03T08:55:11.005Z,31.52
2018-08-03T08:57:38.821Z,31.83
2018-08-03T09:00:06.733Z,32.18
2018-08-03T09:02:35.603Z,32.40
2018-08-03T09:05:03.557Z,32.98
2018-08-03T09:07:31.519Z,33.05
2018-08-03T09:09:59.378Z,32.70
2018-08-03T09:12:27.221Z,31.36
2018-08-03T09:14:55.600Z,31.58
2018-08-03T09:17:23.432Z,31.24
2018-08-03T09:19:51.583Z,32.53
2018-08-03T09:22:19.599Z,32.68
2018-08-03T09:24:47.472Z,32.32
2018-08-03T09:27:15.345Z,32.18
2018-08-03T09:29:43.181Z,33.15
2018-08-03T09:32:11.071Z,34.34
2018-08-03T09:34:38.917Z,33.86
2018-08-03T09:37:06.802Z,34.05
2018-08-03T09:39:34.679Z,34.47
2018-08-03T09:42:02.545Z,33.79
2018-08-03T09:44:30.445Z,33.44
2018-08-03T09:46:58.262Z,32.99
2018-08-03T09:49:26.089Z,32.32
2018-08-03T09:51:53.950Z,31.64
2018-08-03T09:54:21.821Z,31.39
2018-08-03T09:56:49.697Z,31.38
2018-08-03T09:59:17.541Z,33.18
2018-08-03T10:01:45.434Z,31.77
2018-08-03T10:04:13.326Z,32.24
2018-08-03T10:06:41.170Z,33.14
2018-08-03T10:09:09.141Z,32.05
2018-08-03T10:11:36.996Z,32.41
2018-08-03T10:14:04.874Z,32.89
2018-08-03T10:16:32.782Z,33.26
2018-08-03T10:19:00.636Z,33.31
2018-08-03T10:21:28.487Z,31.43
2018-08-03T10:23:56.369Z,31.69
2018-08-03T10:26:24.242Z,32.89
2018-08-03T10:28:52.416Z,33.78
2018-08-03T10:31:20.323Z,34.93
2018-08-03T10:33:48.171Z,35.10
2018-08-03T10:36:16.001Z,34.92
2018-08-03T10:38:43.862Z,36.66
2018-08-03T10:41:11.730Z,35.48
2018-08-03T10:43:39.606Z,35.19
2018-08-03T10:46:07.499Z,33.92
2018-08-03T10:48:35.401Z,34.68
2018-08-03T10:51:03.320Z,34.51
2018-08-03T10:53:31.498Z,34.05
2018-08-03T10:55:59.408Z,34.91
2018-08-03T10:58:27.593Z,34.33
2018-08-03T11:00:55.458Z,33.91
2018-08-03T11:03:23.389Z,33.05
2018-08-03T11:05:51.237Z,33.72
2018-08-03T11:08:19.097Z,33.67
2018-08-03T11:10:47.082Z,33.87
2018-08-03T11:13:15.013Z,34.61
2018-08-03T11:15:42.945Z,34.15
2018-08-03T11:18:11.349Z,35.35
2018-08-03T11:20:40.103Z,34.50
2018-08-03T11:23:07.964Z,34.40
2018-08-03T11:25:35.820Z,34.77
2018-08-03T11:28:03.801Z,35.09
2018-08-03T11:30:31.672Z,35.13
2018-08-03T11:32:59.541Z,35.52
2018-08-03T11:35:27.431Z,35.35
2018-08-03T11:37:55.261Z,36.31
2018-08-03T11:40:23.110Z,36.47
2018-08-03T11:42:50.969Z,36.38
2018-08-03T11:45:18.902Z,36.49
2018-08-03T11:47:46.737Z,35.82
2018-08-03T11:50:14.586Z,34.68
2018-08-03T11:52:42.480Z,34.77
2018-08-03T11:55:10.344Z,35.31
2018-08-03T11:57:38.215Z,36.16
2018-08-03T12:00:06.323Z,34.05
2018-08-03T12:02:34.269Z,34.46
2018-08-03T12:05:02.161Z,34.86
2018-08-03T12:07:30.033Z,35.79
2018-08-03T12:09:57.881Z,37.17
2018-08-03T12:12:25.911Z,38.17
2018-08-03T12:14:53.718Z,36.30
2018-08-03T12:17:21.598Z,36.16
2018-08-03T12:19:49.742Z,36.78
2018-08-03T12:22:17.614Z,36.51
2018-08-03T12:24:45.454Z,36.27
2018-08-03T12:27:13.319Z,35.07
2018-08-03T12:29:41.231Z,34.33
2018-08-03T12:32:09.078Z,34.34
2018-08-03T12:34:36.977Z,34.83
2018-08-03T12:37:04.951Z,34.66
2018-08-03T12:39:32.887Z,34.66
2018-08-03T12:42:00.805Z,35.35
2018-08-03T12:44:28.657Z,36.25
2018-08-03T12:46:56.506Z,36.18
2018-08-03T12:49:24.341Z,37.12
2018-08-03T12:51:52.231Z,37.41
2018-08-03T12:54:20.110Z,36.18
2018-08-03T12:56:48.015Z,35.54
2018-08-03T12:59:15.832Z,35.17
2018-08-03T13:01:43.665Z,35.00
2018-08-03T13:04:11.492Z,35.13
2018-08-03T13:06:39.358Z,36.47
2018-08-03T13:09:07.604Z,37.16
2018-08-03T13:11:35.516Z,36.63
2018-08-03T13:14:03.445Z,36.66
2018-08-03T13:16:31.294Z,36.40
2018-08-03T13:18:59.253Z,35.81
2018-08-03T13:21:34.302Z,35.04
2018-08-03T13:24:02.734Z,34.72
2018-08-03T13:26:30.695Z,34.10
2018-08-03T13:28:59.036Z,33.92
2018-08-03T13:31:27.853Z,34.05
2018-08-03T13:33:55.776Z,34.02
2018-08-03T13:36:24.835Z,34.88
2018-08-03T13:38:53.053Z,35.41
2018-08-03T13:41:20.962Z,34.87
2018-08-03T13:43:48.870Z,35.17
2018-08-03T13:46:17.170Z,35.17
2018-08-03T13:48:46.193Z,35.00
2018-08-03T13:51:15.061Z,35.33
2018-08-03T13:53:43.635Z,35.60
2018-08-03T13:56:12.282Z,35.05
2018-08-03T13:58:40.997Z,34.36
2018-08-03T14:01:19.990Z,34.46
2018-08-03T14:03:47.901Z,33.92
2018-08-03T14:06:15.765Z,33.23
2018-08-03T14:08:45.508Z,33.72
2018-08-03T14:11:14.188Z,34.58
2018-08-03T14:13:42.149Z,35.56
2018-08-03T14:16:10.300Z,34.79
2018-08-03T14:18:38.470Z,35.06
2018-08-03T14:21:06.447Z,34.97
2018-08-03T14:23:34.343Z,34.87
2018-08-03T14:26:02.320Z,34.53
2018-08-03T14:28:30.206Z,33.76
2018-08-03T14:30:58.119Z,33.32
2018-08-03T14:33:26.104Z,32.77
2018-08-03T14:35:54.280Z,33.12
2018-08-03T14:38:22.179Z,33.16
2018-08-03T14:40:50.094Z,33.01
2018-08-03T14:43:17.990Z,32.95
2018-08-03T14:45:45.863Z,32.38
2018-08-03T14:48:13.843Z,32.72
2018-08-03T14:50:41.725Z,33.17
2018-08-03T14:53:09.731Z,33.38
2018-08-03T14:55:37.598Z,32.78
2018-08-03T14:58:05.968Z,32.49
2018-08-03T15:00:33.790Z,32.33
2018-08-03T15:03:01.678Z,32.54
2018-08-03T15:05:30.615Z,32.89
2018-08-03T15:07:58.572Z,32.88
2018-08-03T15:10:26.483Z,33.10
2018-08-03T15:12:54.338Z,32.94
2018-08-03T15:15:22.217Z,32.94
2018-08-03T15:17:50.107Z,32.56
2018-08-03T15:20:17.986Z,32.88
2018-08-03T15:22:45.858Z,33.15
2018-08-03T15:25:13.684Z,32.74
2018-08-03T15:27:41.539Z,32.42
2018-08-03T15:30:10.729Z,32.54
2018-08-03T15:32:38.596Z,32.13
2018-08-03T15:35:06.825Z,32.57
2018-08-03T15:37:34.801Z,32.95
2018-08-03T15:40:02.835Z,33.37
2018-08-03T15:42:30.781Z,33.35
2018-08-03T15:44:58.606Z,32.96
2018-08-03T15:47:26.829Z,33.07
2018-08-03T15:49:54.849Z,33.05
2018-08-03T15:52:22.748Z,32.80
2018-08-03T15:54:51.056Z,32.82
2018-08-03T15:57:18.936Z,33.25
2018-08-03T15:59:46.789Z,33.25
2018-08-03T16:02:14.777Z,32.91
2018-08-03T16:04:42.610Z,32.79
2018-08-03T16:07:10.463Z,32.57
2018-08-03T16:09:38.310Z,32.93
2018-08-03T16:12:06.199Z,32.76
2018-08-03T16:14:34.110Z,32.75
2018-08-03T16:17:02.037Z,32.64
2018-08-03T16:19:29.874Z,32.38
2018-08-03T16:21:57.789Z,32.25
2018-08-03T16:24:25.702Z,32.03
2018-08-03T16:26:53.659Z,32.14
2018-08-03T16:29:21.518Z,31.84
2018-08-03T16:31:49.642Z,31.80
2018-08-03T16:34:17.493Z,31.72
2018-08-03T16:36:45.349Z,31.56
2018-08-03T16:39:13.217Z,31.42
2018-08-03T16:41:41.081Z,30.97
2018-08-03T16:44:09.051Z,30.96
2018-08-03T16:46:36.968Z,31.42
2018-08-03T16:49:04.925Z,30.97
2018-08-03T16:51:32.810Z,31.16
2018-08-03T16:54:00.663Z,31.04
2018-08-03T16:56:28.518Z,30.59
2018-08-03T16:58:56.379Z,30.64
2018-08-03T17:01:24.510Z,30.57
2018-08-03T17:03:52.434Z,30.45
2018-08-03T17:06:20.305Z,30.42
2018-08-03T17:08:48.182Z,30.47
2018-08-03T17:11:16.210Z,30.41
2018-08-03T17:13:44.084Z,30.21
2018-08-03T17:16:11.946Z,30.09
2018-08-03T17:18:39.918Z,30.16
2018-08-03T17:21:08.163Z,30.13
2018-08-03T17:23:36.061Z,30.52
2018-08-03T17:26:04.102Z,30.53
2018-08-03T17:28:32.030Z,30.17
2018-08-03T17:31:00.009Z,30.10
2018-08-03T17:33:27.912Z,30.03
2018-08-03T17:35:56.169Z,29.98
2018-08-03T17:38:24.054Z,29.99
2018-08-03T17:40:52.037Z,30.00
2018-08-03T17:43:19.955Z,29.98
2018-08-03T17:45:47.866Z,29.67
2018-08-03T17:48:15.897Z,29.40
2018-08-03T17:50:43.841Z,28.77
2018-08-03T17:53:11.886Z,28.44
2018-08-03T17:55:39.762Z,28.30
2018-08-03T17:58:07.618Z,28.08
2018-08-03T18:00:35.490Z,28.07
2018-08-03T18:03:05.286Z,28.01
2018-08-03T18:05:33.315Z,27.92
2018-08-03T18:08:01.194Z,28.01
2018-08-03T18:10:29.253Z,27.95
2018-08-03T18:12:57.385Z,27.96
2018-08-03T18:15:26.642Z,28.21
2018-08-03T18:17:54.909Z,28.22
2018-08-03T18:20:22.877Z,28.30
2018-08-03T18:22:50.777Z,28.16
2018-08-03T18:25:19.026Z,27.70
2018-08-03T18:27:46.911Z,27.55
2018-08-03T18:30:14.795Z,27.45
2018-08-03T18:32:42.829Z,27.34
2018-08-03T18:35:10.718Z,27.14
2018-08-03T18:37:38.590Z,27.01
2018-08-03T18:40:08.442Z,27.17
2018-08-03T18:42:36.338Z,27.00
2018-08-03T18:45:05.789Z,26.96
2018-08-03T18:47:33.674Z,26.98
2018-08-03T18:50:01.581Z,26.86
2018-08-03T18:52:29.589Z,26.63
2018-08-03T18:54:58.010Z,26.62
2018-08-03T18:57:26.171Z,26.62
2018-08-03T18:59:54.039Z,26.62
2018-08-03T19:02:21.939Z,26.69
2018-08-03T19:04:49.892Z,26.54
2018-08-03T19:07:18.171Z,26.62
2018-08-03T19:09:46.147Z,26.44
2018-08-03T19:12:14.057Z,26.40
2018-08-03T19:14:42.014Z,26.36
2018-08-03T19:17:09.920Z,26.32
2018-08-03T19:19:38.711Z,26.18
2018-08-03T19:22:06.617Z,26.01
2018-08-03T19:24:34.514Z,26.02
2018-08-03T19:27:02.424Z,26.03
2018-08-03T19:29:30.325Z,25.98
2018-08-03T19:31:59.302Z,25.89
2018-08-03T19:34:27.212Z,25.80
2018-08-03T19:36:55.140Z,25.76
2018-08-03T19:39:23.010Z,25.67
2018-08-03T19:41:50.870Z,25.73
2018-08-03T19:44:18.774Z,25.72
2018-08-03T19:46:46.626Z,25.69
2018-08-03T19:49:14.514Z,25.67
2018-08-03T19:51:42.369Z,25.63
2018-08-03T19:54:10.218Z,25.58
2018-08-03T19:56:38.065Z,25.63
2018-08-03T19:59:06.202Z,25.60
2018-08-03T20:01:34.026Z,25.58
2018-08-03T20:04:01.973Z,25.29
2018-08-03T20:06:29.829Z,25.27
2018-08-03T20:08:57.689Z,25.26
2018-08-03T20:11:25.573Z,25.32
2018-08-03T20:13:53.532Z,25.35
2018-08-03T20:16:21.453Z,25.28
2018-08-03T20:18:49.345Z,25.27
2018-08-03T20:21:17.233Z,25.19
2018-08-03T20:23:45.206Z,25.20
2018-08-03T20:26:13.057Z,25.13
2018-08-03T20:28:40.939Z,25.11
2018-08-03T20:31:08.787Z,25.16
2018-08-03T20:33:36.669Z,25.09
2018-08-03T20:36:04.545Z,24.82
2018-08-03T20:38:32.620Z,24.72
2018-08-03T20:41:00.525Z,24.65
2018-08-03T20:43:28.383Z,24.65
2018-08-03T20:45:56.272Z,24.51
2018-08-03T20:48:24.158Z,24.58
2018-08-03T20:50:52.401Z,24.48
2018-08-03T20:53:20.283Z,24.49
2018-08-03T20:55:48.127Z,24.43
2018-08-03T20:58:16.035Z,24.44
2018-08-03T21:00:43.865Z,24.30
2018-08-03T21:03:12.110Z,24.36
2018-08-03T21:05:39.978Z,24.46
2018-08-03T21:08:07.829Z,24.53
2018-08-03T21:10:35.742Z,24.63
2018-08-03T21:13:03.678Z,24.40
2018-08-03T21:15:31.670Z,24.34
2018-08-03T21:17:59.620Z,24.25
2018-08-03T21:20:27.819Z,24.04
2018-08-03T21:22:55.694Z,24.01
2018-08-03T21:25:23.593Z,24.13
2018-08-03T21:27:51.450Z,24.26
2018-08-03T21:30:19.386Z,24.36
2018-08-03T21:32:47.239Z,24.41
2018-08-03T21:35:15.102Z,24.43
2018-08-03T21:37:42.981Z,24.38
2018-08-03T21:40:10.865Z,24.40
2018-08-03T21:42:38.750Z,24.34
2018-08-03T21:45:06.718Z,24.34
2018-08-03T21:47:34.579Z,24.30
2018-08-03T21:50:02.824Z,24.24
2018-08-03T21:52:31.366Z,24.11
2018-08-03T21:54:59.240Z,24.00
2018-08-03T21:57:27.265Z,23.95
2018-08-03T21:59:55.208Z,24.05
2018-08-03T22:02:23.168Z,24.20
2018-08-03T22:04:51.010Z,24.16
2018-08-03T22:07:19.023Z,24.21
2018-08-03T22:09:46.945Z,24.21
2018-08-03T22:12:15.011Z,24.13
2018-08-03T22:14:43.011Z,24.11
2018-08-03T22:17:10.961Z,24.15
2018-08-03T22:19:38.865Z,24.13
2018-08-03T22:22:06.921Z,23.98
2018-08-03T22:24:34.952Z,24.17
2018-08-03T22:27:03.030Z,24.12
2018-08-03T22:29:30.873Z,24.09
2018-08-03T22:31:58.815Z,24.11
2018-08-03T22:34:26.737Z,24.09
2018-08-03T22:36:54.594Z,24.08
2018-08-03T22:39:22.453Z,24.06
2018-08-03T22:41:50.298Z,24.11
2018-08-03T22:44:18.145Z,24.16
2018-08-03T22:46:46.013Z,23.84
2018-08-03T22:49:13.869Z,23.96
2018-08-03T22:51:41.708Z,23.93
2018-08-03T22:54:09.561Z,23.97
2018-08-03T22:56:37.440Z,23.87
2018-08-03T22:59:05.505Z,23.83
2018-08-03T23:01:33.370Z,23.80
2018-08-03T23:04:01.251Z,23.71
2018-08-03T23:06:29.097Z,23.72
2018-08-03T23:08:56.971Z,23.68
2018-08-03T23:11:24.910Z,23.62
2018-08-03T23:13:52.803Z,23.61
2018-08-03T23:16:20.686Z,23.52
2018-08-03T23:18:48.512Z,23.51
2018-08-03T23:21:16.342Z,23.41
2018-08-03T23:23:44.222Z,23.45
2018-08-03T23:26:12.090Z,23.49
2018-08-03T23:28:39.929Z,23.48
2018-08-03T23:31:07.774Z,23.55
2018-08-03T23:33:35.626Z,23.56
2018-08-03T23:36:03.572Z,23.56
2018-08-03T23:38:31.461Z,23.50
2018-08-03T23:40:59.337Z,23.52
2018-08-03T23:43:27.225Z,23.50
2018-08-03T23:45:55.069Z,23.50
2018-08-03T23:48:22.957Z,23.54
2018-08-03T23:50:50.801Z,23.42
2018-08-03T23:53:18.686Z,23.29
2018-08-03T23:55:46.531Z,23.21
2018-08-03T23:58:14.408Z,23.07
